createdAt,value
2023-03-06T00:00:45.048Z,100547.53
2023-03-06T00:01:36.736Z,100550.75
2023-03-06T00:02:28.290Z,100547.47
2023-03-06T00:03:20.541Z,100545.78
2023-03-06T00:04:12.959Z,100545.25
2023-03-06T00:05:05.068Z,100545.31
2023-03-06T00:05:59.329Z,100540.19
2023-03-06T00:06:51.004Z,100536.75
2023-03-06T00:07:43.969Z,100542.09
2023-03-06T00:08:35.480Z,100538.56
2023-03-06T00:09:27.179Z,100535.03
2023-03-06T00:10:27.078Z,100537.47
2023-03-06T00:11:18.728Z,100532.31
2023-03-06T00:12:10.565Z,100530.56
2023-03-06T00:13:06.133Z,100528.78
2023-03-06T00:13:57.939Z,100527.78
2023-03-06T00:14:49.759Z,100526.06
2023-03-06T00:15:42.157Z,100532.16
2023-03-06T00:16:33.622Z,100525.34
2023-03-06T00:17:27.141Z,100528.88
2023-03-06T00:18:18.602Z,100527.19
2023-03-06T00:19:10.312Z,100524.75
2023-03-06T00:20:02.008Z,100524.69
2023-03-06T00:20:53.745Z,100523.81
2023-03-06T00:21:46.260Z,100519.47
2023-03-06T00:22:38.555Z,100522.84
2023-03-06T00:23:30.305Z,100523.75
2023-03-06T00:24:21.988Z,100523.66
2023-03-06T00:25:16.804Z,100518.59
2023-03-06T00:26:09.086Z,100517.88
2023-03-06T00:27:02.159Z,100522.28
2023-03-06T00:27:53.763Z,100518.91
2023-03-06T00:28:45.226Z,100519.94
2023-03-06T00:29:36.942Z,100525.00
2023-03-06T00:30:28.402Z,100519.88
2023-03-06T00:31:19.885Z,100517.31
2023-03-06T00:32:11.408Z,100520.72
2023-03-06T00:33:03.191Z,100520.59
2023-03-06T00:33:55.278Z,100514.56
2023-03-06T00:34:49.894Z,100517.94
2023-03-06T00:35:41.938Z,100514.47
2023-03-06T00:36:33.417Z,100509.28
2023-03-06T00:37:25.357Z,100510.00
2023-03-06T00:38:16.989Z,100504.97
2023-03-06T00:39:08.765Z,100516.09
2023-03-06T00:40:00.394Z,100511.91
2023-03-06T00:40:51.852Z,100514.56
2023-03-06T00:41:45.937Z,100509.44
2023-03-06T00:42:38.420Z,100504.06
2023-03-06T00:43:29.889Z,100504.97
2023-03-06T00:44:21.636Z,100510.91
2023-03-06T00:45:14.720Z,100506.41
2023-03-06T00:46:07.298Z,100501.94
2023-03-06T00:46:58.877Z,100505.63
2023-03-06T00:47:50.434Z,100506.47
2023-03-06T00:48:41.992Z,100501.28
2023-03-06T00:49:33.703Z,100497.66
2023-03-06T00:50:25.299Z,100495.91
2023-03-06T00:51:19.804Z,100496.00
2023-03-06T00:52:13.268Z,100492.47
2023-03-06T00:53:05.167Z,100495.09
2023-03-06T00:53:56.777Z,100492.69
2023-03-06T00:54:49.483Z,100495.09
2023-03-06T00:55:44.567Z,100488.84
2023-03-06T00:56:36.463Z,100488.75
2023-03-06T00:57:27.929Z,100484.50
2023-03-06T00:58:19.840Z,100484.56
2023-03-06T00:59:11.558Z,100491.66
2023-03-06T01:00:04.713Z,100487.38
2023-03-06T01:00:56.610Z,100486.72
2023-03-06T01:01:48.478Z,100490.06
2023-03-06T01:02:39.976Z,100485.72
2023-03-06T01:03:31.567Z,100487.63
2023-03-06T01:04:23.696Z,100480.72
2023-03-06T01:05:15.402Z,100480.78
2023-03-06T01:06:07.579Z,100480.72
2023-03-06T01:07:00.120Z,100478.97
2023-03-06T01:07:51.554Z,100473.88
2023-03-06T01:08:43.974Z,100473.09
2023-03-06T01:09:35.497Z,100474.94
2023-03-06T01:10:27.541Z,100475.91
2023-03-06T01:11:19.251Z,100469.00
2023-03-06T01:12:10.943Z,100471.41
2023-03-06T01:13:02.407Z,100469.66
2023-03-06T01:13:55.876Z,100470.66
2023-03-06T01:14:47.563Z,100466.28
2023-03-06T01:15:39.112Z,100470.75
2023-03-06T01:16:31.067Z,100469.72
2023-03-06T01:17:22.843Z,100471.41
2023-03-06T01:18:15.328Z,100464.66
2023-03-06T01:19:07.147Z,100461.28
2023-03-06T01:19:58.754Z,100462.09
2023-03-06T01:20:50.449Z,100460.53
2023-03-06T01:21:41.888Z,100466.56
2023-03-06T01:22:33.721Z,100457.97
2023-03-06T01:23:25.221Z,100459.72
2023-03-06T01:24:16.949Z,100458.91
2023-03-06T01:25:09.296Z,100461.59
2023-03-06T01:26:01.178Z,100462.44
2023-03-06T01:26:52.734Z,100458.25
2023-03-06T01:27:45.122Z,100461.72
2023-03-06T01:28:39.237Z,100453.22
2023-03-06T01:29:31.049Z,100458.22
2023-03-06T01:30:22.902Z,100450.50
2023-03-06T01:31:14.857Z,100452.31
2023-03-06T01:32:06.923Z,100453.22
2023-03-06T01:32:59.183Z,100448.13
2023-03-06T01:33:50.737Z,100447.84
2023-03-06T01:34:42.353Z,100451.31
2023-03-06T01:35:34.095Z,100441.09
2023-03-06T01:36:25.724Z,100443.91
2023-03-06T01:37:17.438Z,100443.97
2023-03-06T01:38:09.339Z,100439.72
2023-03-06T01:39:01.032Z,100441.31
2023-03-06T01:39:52.552Z,100442.66
2023-03-06T01:40:44.292Z,100434.84
2023-03-06T01:41:36.682Z,100440.59
2023-03-06T01:42:28.191Z,100448.28
2023-03-06T01:43:28.870Z,100443.66
2023-03-06T01:44:20.295Z,100438.44
2023-03-06T01:45:14.838Z,100440.09
2023-03-06T01:46:54.237Z,100434.09
2023-03-06T01:47:45.778Z,100434.09
2023-03-06T01:48:37.748Z,100438.19
2023-03-06T01:49:38.318Z,100431.38
2023-03-06T01:50:32.665Z,100428.06
2023-03-06T01:51:32.269Z,100430.06
2023-03-06T01:52:30.239Z,100423.88
2023-03-06T01:53:22.375Z,100428.56
2023-03-06T01:54:30.934Z,100424.88
2023-03-06T01:55:33.262Z,100428.25
2023-03-06T01:56:25.573Z,100430.88
2023-03-06T01:57:43.995Z,100429.25
2023-03-06T01:58:36.369Z,100430.97
2023-03-06T01:59:30.267Z,100429.34
2023-03-06T02:00:26.113Z,100430.16
2023-03-06T02:01:19.098Z,100424.88
2023-03-06T02:02:14.310Z,100427.25
2023-03-06T02:03:13.029Z,100420.47
2023-03-06T02:04:05.034Z,100419.34
2023-03-06T02:04:59.607Z,100417.75
2023-03-06T02:05:51.466Z,100421.03
2023-03-06T02:06:43.597Z,100416.78
2023-03-06T02:07:37.220Z,100419.41
2023-03-06T02:08:30.386Z,100414.94
2023-03-06T02:09:22.180Z,100420.00
2023-03-06T02:10:17.512Z,100419.34
2023-03-06T02:11:18.165Z,100409.94
2023-03-06T02:12:14.509Z,100414.28
2023-03-06T02:13:06.224Z,100412.50
2023-03-06T02:13:58.181Z,100410.03
2023-03-06T02:14:50.586Z,100407.38
2023-03-06T02:15:42.142Z,100408.13
2023-03-06T02:16:34.272Z,100402.19
2023-03-06T02:17:28.130Z,100415.09
2023-03-06T02:18:20.042Z,100409.09
2023-03-06T02:19:34.880Z,100414.13
2023-03-06T02:20:29.213Z,100409.88
2023-03-06T02:21:31.169Z,100405.47
2023-03-06T02:22:25.754Z,100408.13
2023-03-06T02:23:40.000Z,100410.53
2023-03-06T02:24:56.590Z,100408.13
2023-03-06T02:25:52.384Z,100404.97
2023-03-06T02:26:45.187Z,100402.09
2023-03-06T02:27:36.994Z,100399.31
2023-03-06T02:28:29.036Z,100398.41
2023-03-06T02:29:28.778Z,100391.63
2023-03-06T02:30:25.507Z,100401.28
2023-03-06T02:31:24.698Z,100390.06
2023-03-06T02:32:16.351Z,100389.91
2023-03-06T02:33:08.011Z,100395.28
2023-03-06T02:34:22.354Z,100391.53
2023-03-06T02:35:27.335Z,100393.75
2023-03-06T02:36:19.298Z,100403.09
2023-03-06T02:37:11.286Z,100396.50
2023-03-06T02:38:12.023Z,100391.22
2023-03-06T02:39:04.626Z,100395.25
2023-03-06T02:40:08.241Z,100395.16
2023-03-06T02:41:03.742Z,100391.78
2023-03-06T02:41:55.540Z,100392.53
2023-03-06T02:42:56.699Z,100388.28
2023-03-06T02:43:52.230Z,100388.13
2023-03-06T02:44:44.365Z,100387.09
2023-03-06T02:45:40.677Z,100386.94
2023-03-06T02:46:32.390Z,100374.91
2023-03-06T02:47:25.297Z,100381.00
2023-03-06T02:48:18.610Z,100379.31
2023-03-06T02:49:10.790Z,100379.97
2023-03-06T02:50:02.524Z,100375.72
2023-03-06T02:50:54.161Z,100373.06
2023-03-06T02:51:45.695Z,100379.00
2023-03-06T02:52:37.392Z,100372.25
2023-03-06T02:53:28.966Z,100368.84
2023-03-06T02:54:20.619Z,100372.13
2023-03-06T02:55:12.241Z,100367.72
2023-03-06T02:56:03.974Z,100373.81
2023-03-06T02:56:55.727Z,100366.13
2023-03-06T02:57:48.338Z,100370.44
2023-03-06T02:58:40.219Z,100366.97
2023-03-06T02:59:31.958Z,100371.16
2023-03-06T03:00:24.368Z,100370.50
2023-03-06T03:01:16.077Z,100367.06
2023-03-06T03:02:08.353Z,100370.50
2023-03-06T03:03:00.119Z,100368.91
2023-03-06T03:03:51.833Z,100365.47
2023-03-06T03:04:46.077Z,100368.09
2023-03-06T03:05:37.739Z,100359.59
2023-03-06T03:06:36.773Z,100361.19
2023-03-06T03:07:28.506Z,100367.28
2023-03-06T03:08:20.535Z,100364.56
2023-03-06T03:09:14.792Z,100370.75
2023-03-06T03:10:07.208Z,100363.03
2023-03-06T03:10:59.300Z,100361.28
2023-03-06T03:11:54.417Z,100356.22
2023-03-06T03:12:46.290Z,100361.34
2023-03-06T03:13:38.993Z,100359.06
2023-03-06T03:14:35.536Z,100359.31
2023-03-06T03:15:28.217Z,100355.78
2023-03-06T03:16:19.850Z,100360.94
2023-03-06T03:17:11.496Z,100357.56
2023-03-06T03:18:03.513Z,100358.41
2023-03-06T03:18:55.073Z,100355.03
2023-03-06T03:19:47.828Z,100353.28
2023-03-06T03:20:42.934Z,100355.03
2023-03-06T03:21:34.595Z,100349.91
2023-03-06T03:22:26.370Z,100355.84
2023-03-06T03:23:18.013Z,100359.31
2023-03-06T03:24:09.522Z,100349.03
2023-03-06T03:25:01.486Z,100352.41
2023-03-06T03:25:53.517Z,100347.53
2023-03-06T03:26:46.008Z,100350.88
2023-03-06T03:27:40.304Z,100352.41
2023-03-06T03:28:32.291Z,100352.47
2023-03-06T03:29:24.200Z,100346.63
2023-03-06T03:30:16.346Z,100350.00
2023-03-06T03:31:10.043Z,100351.59
2023-03-06T03:32:02.170Z,100354.19
2023-03-06T03:32:53.882Z,100346.63
2023-03-06T03:33:45.602Z,100344.16
2023-03-06T03:34:38.005Z,100355.38
2023-03-06T03:35:30.719Z,100351.09
2023-03-06T03:36:22.439Z,100346.78
2023-03-06T03:37:14.152Z,100354.56
2023-03-06T03:38:07.595Z,100351.91
2023-03-06T03:38:59.161Z,100350.28
2023-03-06T03:39:51.189Z,100344.44
2023-03-06T03:40:42.755Z,100344.50
2023-03-06T03:41:34.456Z,100348.81
2023-03-06T03:42:29.081Z,100344.44
2023-03-06T03:43:20.607Z,100354.72
2023-03-06T03:44:12.671Z,100352.06
2023-03-06T03:45:04.579Z,100346.25
2023-03-06T03:45:56.095Z,100342.81
2023-03-06T03:46:48.618Z,100346.19
2023-03-06T03:47:45.132Z,100351.25
2023-03-06T03:48:37.608Z,100343.78
2023-03-06T03:49:30.522Z,100349.56
2023-03-06T03:50:24.555Z,100350.09
2023-03-06T03:51:16.539Z,100340.59
2023-03-06T03:52:12.509Z,100344.94
2023-03-06T03:53:04.993Z,100342.28
2023-03-06T03:53:58.064Z,100345.81
2023-03-06T03:54:52.295Z,100346.47
2023-03-06T03:55:45.989Z,100343.16
2023-03-06T03:56:39.914Z,100343.97
2023-03-06T03:57:36.513Z,100339.63
2023-03-06T03:58:28.107Z,100337.81
2023-03-06T03:59:19.894Z,100334.34
2023-03-06T04:00:25.070Z,100332.84
2023-03-06T04:01:27.079Z,100331.31
2023-03-06T04:02:21.549Z,100330.56
2023-03-06T04:03:20.821Z,100333.13
2023-03-06T04:04:12.750Z,100329.84
2023-03-06T04:05:08.239Z,100327.34
2023-03-06T04:06:00.248Z,100323.94
2023-03-06T04:06:52.457Z,100323.38
2023-03-06T04:07:45.039Z,100323.00
2023-03-06T04:08:37.023Z,100323.00
2023-03-06T04:09:30.039Z,100322.19
2023-03-06T04:10:24.266Z,100325.72
2023-03-06T04:11:16.854Z,100319.78
2023-03-06T04:12:09.281Z,100320.66
2023-03-06T04:13:02.285Z,100313.84
2023-03-06T04:13:54.134Z,100320.00
2023-03-06T04:14:45.765Z,100320.00
2023-03-06T04:15:37.933Z,100320.66
2023-03-06T04:16:29.522Z,100316.41
2023-03-06T04:17:21.174Z,100317.22
2023-03-06T04:18:13.183Z,100311.41
2023-03-06T04:19:05.410Z,100308.78
2023-03-06T04:19:57.115Z,100307.88
2023-03-06T04:20:50.009Z,100315.53
2023-03-06T04:21:43.422Z,100308.69
2023-03-06T04:22:34.900Z,100309.50
2023-03-06T04:23:27.803Z,100306.13
2023-03-06T04:24:19.560Z,100303.56
2023-03-06T04:25:12.387Z,100301.88
2023-03-06T04:26:04.239Z,100303.69
2023-03-06T04:26:55.804Z,100295.19
2023-03-06T04:27:47.744Z,100299.31
2023-03-06T04:28:39.470Z,100290.66
2023-03-06T04:29:31.500Z,100294.03
2023-03-06T04:30:24.620Z,100290.66
2023-03-06T04:31:16.284Z,100288.00
2023-03-06T04:32:09.676Z,100285.53
2023-03-06T04:33:01.561Z,100289.03
2023-03-06T04:33:53.360Z,100287.44
2023-03-06T04:34:44.909Z,100283.25
2023-03-06T04:35:37.351Z,100279.88
2023-03-06T04:36:34.711Z,100284.19
2023-03-06T04:37:33.156Z,100279.19
2023-03-06T04:38:25.668Z,100271.59
2023-03-06T04:39:17.552Z,100282.81
2023-03-06T04:40:20.062Z,100279.56
2023-03-06T04:41:11.881Z,100277.59
2023-03-06T04:42:03.842Z,100275.97
2023-03-06T04:42:59.345Z,100273.47
2023-03-06T04:43:51.836Z,100270.09
2023-03-06T04:44:44.022Z,100264.97
2023-03-06T04:45:35.762Z,100270.16
2023-03-06T04:46:27.221Z,100266.88
2023-03-06T04:47:19.263Z,100266.88
2023-03-06T04:48:15.354Z,100263.41
2023-03-06T04:49:07.074Z,100260.91
2023-03-06T04:49:58.482Z,100267.59
2023-03-06T04:50:50.014Z,100264.34
2023-03-06T04:51:41.460Z,100257.59
2023-03-06T04:52:33.025Z,100261.91
2023-03-06T04:53:24.513Z,100267.16
2023-03-06T04:54:17.942Z,100259.50
2023-03-06T04:55:14.483Z,100260.38
2023-03-06T04:56:06.601Z,100264.63
2023-03-06T04:56:58.478Z,100257.59
2023-03-06T04:57:49.952Z,100261.66
2023-03-06T04:58:43.441Z,100260.69
2023-03-06T04:59:36.023Z,100265.78
2023-03-06T05:00:31.308Z,100264.03
2023-03-06T05:01:23.063Z,100259.75
2023-03-06T05:02:14.605Z,100258.78
2023-03-06T05:03:06.037Z,100256.31
2023-03-06T05:03:57.761Z,100258.13
2023-03-06T05:04:49.219Z,100262.44
2023-03-06T05:05:41.484Z,100261.72
2023-03-06T05:06:33.160Z,100264.16
2023-03-06T05:07:24.693Z,100257.31
2023-03-06T05:08:18.330Z,100264.16
2023-03-06T05:09:10.158Z,100259.06
2023-03-06T05:10:01.649Z,100257.44
2023-03-06T05:10:59.114Z,100260.25
2023-03-06T05:11:51.290Z,100255.91
2023-03-06T05:12:44.190Z,100253.25
2023-03-06T05:13:35.693Z,100250.66
2023-03-06T05:14:30.550Z,100262.69
2023-03-06T05:15:22.229Z,100254.16
2023-03-06T05:16:14.049Z,100254.16
2023-03-06T05:17:05.898Z,100255.84
2023-03-06T05:17:57.547Z,100260.91
2023-03-06T05:18:50.693Z,100256.50
2023-03-06T05:19:42.377Z,100254.06
2023-03-06T05:20:33.960Z,100257.69
2023-03-06T05:21:25.493Z,100258.53
2023-03-06T05:22:17.258Z,100252.53
2023-03-06T05:23:08.946Z,100255.84
2023-03-06T05:24:00.561Z,100254.03
2023-03-06T05:24:52.564Z,100257.41
2023-03-06T05:25:44.034Z,100256.66
2023-03-06T05:26:35.561Z,100258.22
2023-03-06T05:27:28.020Z,100253.78
2023-03-06T05:28:19.578Z,100257.25
2023-03-06T05:29:11.561Z,100260.56
2023-03-06T05:30:03.921Z,100256.22
2023-03-06T05:30:55.370Z,100256.31
2023-03-06T05:31:47.274Z,100258.78
2023-03-06T05:32:39.108Z,100257.94
2023-03-06T05:33:36.100Z,100265.84
2023-03-06T05:34:27.524Z,100262.41
2023-03-06T05:35:22.404Z,100258.13
2023-03-06T05:36:13.965Z,100266.59
2023-03-06T05:37:05.819Z,100263.78
2023-03-06T05:37:58.554Z,100264.66
2023-03-06T05:38:50.536Z,100268.22
2023-03-06T05:39:42.514Z,100262.19
2023-03-06T05:40:33.924Z,100256.22
2023-03-06T05:41:25.400Z,100265.09
2023-03-06T05:42:16.964Z,100258.22
2023-03-06T05:43:08.955Z,100263.94
2023-03-06T05:44:00.437Z,100263.06
2023-03-06T05:44:51.992Z,100256.94
2023-03-06T05:45:44.426Z,100259.75
2023-03-06T05:46:36.170Z,100260.41
2023-03-06T05:47:27.701Z,100258.75
2023-03-06T05:48:19.441Z,100258.00
2023-03-06T05:49:11.051Z,100262.25
2023-03-06T05:50:04.908Z,100259.69
2023-03-06T05:50:57.721Z,100262.31
2023-03-06T05:51:49.194Z,100264.31
2023-03-06T05:52:41.207Z,100266.72
2023-03-06T05:53:32.995Z,100265.84
2023-03-06T05:54:26.362Z,100262.41
2023-03-06T05:55:19.746Z,100255.78
2023-03-06T05:56:11.184Z,100259.75
2023-03-06T05:57:04.969Z,100260.69
2023-03-06T05:57:56.388Z,100270.09
2023-03-06T05:58:48.826Z,100260.69
2023-03-06T05:59:40.271Z,100266.44
2023-03-06T06:00:31.747Z,100260.41
2023-03-06T06:01:25.261Z,100266.44
2023-03-06T06:02:18.107Z,100262.19
2023-03-06T06:03:09.645Z,100263.88
2023-03-06T06:04:01.089Z,100262.19
2023-03-06T06:04:52.636Z,100256.31
2023-03-06T06:05:44.445Z,100257.31
2023-03-06T06:06:36.140Z,100268.41
2023-03-06T06:07:27.766Z,100261.72
2023-03-06T06:08:20.481Z,100261.78
2023-03-06T06:09:13.906Z,100256.72
2023-03-06T06:10:07.537Z,100256.72
2023-03-06T06:10:59.147Z,100259.22
2023-03-06T06:11:52.976Z,100258.41
2023-03-06T06:12:44.445Z,100257.19
2023-03-06T06:13:37.160Z,100258.00
2023-03-06T06:14:30.060Z,100258.88
2023-03-06T06:15:21.617Z,100253.94
2023-03-06T06:16:16.651Z,100255.56
2023-03-06T06:17:08.235Z,100259.06
2023-03-06T06:17:59.729Z,100263.25
2023-03-06T06:18:51.487Z,100263.88
2023-03-06T06:19:43.268Z,100254.03
2023-03-06T06:20:37.232Z,100255.41
2023-03-06T06:21:28.656Z,100256.22
2023-03-06T06:22:20.104Z,100257.03
2023-03-06T06:23:11.959Z,100257.13
2023-03-06T06:24:03.977Z,100253.44
2023-03-06T06:24:55.676Z,100259.31
2023-03-06T06:25:47.420Z,100249.72
2023-03-06T06:26:39.388Z,100257.56
2023-03-06T06:27:30.828Z,100256.09
2023-03-06T06:28:22.232Z,100254.25
2023-03-06T06:29:13.986Z,100258.50
2023-03-06T06:30:07.721Z,100247.50
2023-03-06T06:30:59.466Z,100259.38
2023-03-06T06:31:53.061Z,100255.06
2023-03-06T06:32:44.582Z,100251.03
2023-03-06T06:33:36.376Z,100256.16
2023-03-06T06:34:28.729Z,100262.19
2023-03-06T06:35:20.315Z,100244.19
2023-03-06T06:36:20.312Z,100252.72
2023-03-06T06:37:11.907Z,100253.53
2023-03-06T06:38:03.402Z,100253.66
2023-03-06T06:38:54.832Z,100254.47
2023-03-06T06:39:46.289Z,100252.78
2023-03-06T06:40:37.994Z,100250.13
2023-03-06T06:41:53.512Z,100253.44
2023-03-06T06:42:41.826Z,100251.75
2023-03-06T06:43:33.267Z,100251.75
2023-03-06T06:44:24.942Z,100245.09
2023-03-06T06:45:16.486Z,100245.00
2023-03-06T06:46:38.863Z,100249.34
2023-03-06T06:47:24.833Z,100246.69
2023-03-06T06:48:17.813Z,100247.66
2023-03-06T06:49:09.662Z,100246.03
2023-03-06T06:50:01.170Z,100242.56
2023-03-06T06:50:59.848Z,100245.22
2023-03-06T06:51:51.502Z,100242.66
2023-03-06T06:52:43.043Z,100244.28
2023-03-06T06:53:34.692Z,100242.03
2023-03-06T06:54:26.947Z,100238.59
2023-03-06T06:55:18.561Z,100252.13
2023-03-06T06:56:10.560Z,100241.75
2023-03-06T06:57:02.304Z,100244.28
2023-03-06T06:57:53.765Z,100250.06
2023-03-06T06:58:45.280Z,100247.34
2023-03-06T06:59:36.810Z,100245.81
2023-03-06T07:00:28.507Z,100252.56
2023-03-06T07:01:21.029Z,100248.28
2023-03-06T07:02:14.135Z,100256.16
2023-03-06T07:03:05.900Z,100252.00
2023-03-06T07:03:57.504Z,100256.44
2023-03-06T07:05:02.471Z,100257.31
2023-03-06T07:05:55.819Z,100255.41
2023-03-06T07:06:47.276Z,100268.34
2023-03-06T07:07:39.145Z,100258.00
2023-03-06T07:08:30.767Z,100256.31
2023-03-06T07:09:22.288Z,100262.41
2023-03-06T07:10:15.913Z,100259.88
2023-03-06T07:11:14.782Z,100262.31
2023-03-06T07:12:08.187Z,100260.03
2023-03-06T07:13:00.037Z,100259.03
2023-03-06T07:13:51.571Z,100264.31
2023-03-06T07:14:43.314Z,100266.06
2023-03-06T07:15:35.027Z,100262.81
2023-03-06T07:16:26.757Z,100267.34
2023-03-06T07:17:18.242Z,100265.72
2023-03-06T07:18:10.042Z,100269.25
2023-03-06T07:19:01.769Z,100266.84
2023-03-06T07:19:53.283Z,100264.44
2023-03-06T07:20:44.944Z,100268.59
2023-03-06T07:21:36.585Z,100270.22
2023-03-06T07:22:30.326Z,100270.22
2023-03-06T07:23:24.799Z,100262.34
2023-03-06T07:24:16.540Z,100270.25
2023-03-06T07:25:08.563Z,100273.72
2023-03-06T07:26:00.199Z,100269.47
2023-03-06T07:26:52.472Z,100267.78
2023-03-06T07:27:46.998Z,100272.97
2023-03-06T07:28:52.326Z,100268.72
2023-03-06T07:29:44.321Z,100273.88
2023-03-06T07:30:35.991Z,100269.69
2023-03-06T07:31:28.412Z,100271.72
2023-03-06T07:32:20.903Z,100268.31
2023-03-06T07:33:13.406Z,100278.78
2023-03-06T07:34:05.180Z,100272.78
2023-03-06T07:35:17.196Z,100270.28
2023-03-06T07:36:12.782Z,100270.28
2023-03-06T07:37:05.077Z,100269.19
2023-03-06T07:37:56.541Z,100276.91
2023-03-06T07:38:48.276Z,100273.75
2023-03-06T07:39:39.813Z,100276.22
2023-03-06T07:40:31.223Z,100271.72
2023-03-06T07:41:22.865Z,100277.94
2023-03-06T07:42:15.082Z,100274.28
2023-03-06T07:43:19.452Z,100270.91
2023-03-06T07:44:21.192Z,100267.56
2023-03-06T07:45:14.334Z,100271.97
2023-03-06T07:46:06.308Z,100272.94
2023-03-06T07:46:57.807Z,100276.38
2023-03-06T07:47:50.898Z,100264.19
2023-03-06T07:48:42.880Z,100272.84
2023-03-06T07:49:35.351Z,100265.34
2023-03-06T07:50:27.019Z,100268.94
2023-03-06T07:51:21.364Z,100269.91
2023-03-06T07:52:12.809Z,100267.31
2023-03-06T07:53:04.489Z,100271.53
2023-03-06T07:53:55.906Z,100273.19
2023-03-06T07:54:48.069Z,100273.97
2023-03-06T07:55:41.200Z,100271.38
2023-03-06T07:56:34.842Z,100268.88
2023-03-06T07:57:26.761Z,100271.66
2023-03-06T07:58:18.359Z,100274.94
2023-03-06T07:59:11.560Z,100274.00
2023-03-06T08:00:09.328Z,100272.47
2023-03-06T08:01:10.995Z,100272.59
2023-03-06T08:02:02.530Z,100276.94
2023-03-06T08:02:54.081Z,100274.28
2023-03-06T08:03:46.352Z,100281.19
2023-03-06T08:04:38.164Z,100276.59
2023-03-06T08:05:29.657Z,100273.03
2023-03-06T08:06:24.284Z,100274.84
2023-03-06T08:07:15.733Z,100277.59
2023-03-06T08:08:07.346Z,100278.50
2023-03-06T08:08:59.694Z,100281.25
2023-03-06T08:09:51.199Z,100271.84
2023-03-06T08:10:48.050Z,100276.34
2023-03-06T08:11:39.572Z,100273.78
2023-03-06T08:12:31.399Z,100282.41
2023-03-06T08:13:22.779Z,100277.25
2023-03-06T08:14:14.316Z,100268.59
2023-03-06T08:15:06.777Z,100274.00
2023-03-06T08:15:59.703Z,100276.63
2023-03-06T08:16:52.018Z,100274.84
2023-03-06T08:17:43.468Z,100270.13
2023-03-06T08:18:36.032Z,100281.88
2023-03-06T08:19:27.616Z,100280.25
2023-03-06T08:20:19.237Z,100279.31
2023-03-06T08:21:14.359Z,100281.06
2023-03-06T08:22:06.890Z,100277.94
2023-03-06T08:22:58.551Z,100284.72
2023-03-06T08:23:50.716Z,100289.63
2023-03-06T08:24:42.772Z,100279.97
2023-03-06T08:25:34.194Z,100283.53
2023-03-06T08:26:32.494Z,100284.31
2023-03-06T08:27:24.341Z,100272.31
2023-03-06T08:28:15.781Z,100269.97
2023-03-06T08:29:08.048Z,100274.22
2023-03-06T08:29:59.842Z,100269.28
2023-03-06T08:30:51.345Z,100272.84
2023-03-06T08:31:45.576Z,100268.16
2023-03-06T08:32:37.595Z,100271.88
2023-03-06T08:33:29.050Z,100271.94
2023-03-06T08:34:24.450Z,100267.31
2023-03-06T08:35:16.152Z,100271.72
2023-03-06T08:36:07.796Z,100265.88
2023-03-06T08:36:59.240Z,100266.75
2023-03-06T08:37:50.809Z,100267.72
2023-03-06T08:38:42.294Z,100272.78
2023-03-06T08:39:33.805Z,100268.88
2023-03-06T08:40:26.995Z,100267.72
2023-03-06T08:41:20.415Z,100263.34
2023-03-06T08:42:12.219Z,100269.38
2023-03-06T08:43:04.009Z,100269.56
2023-03-06T08:43:55.601Z,100273.66
2023-03-06T08:44:47.170Z,100272.88
2023-03-06T08:45:39.820Z,100275.41
2023-03-06T08:46:32.789Z,100279.66
2023-03-06T08:47:24.304Z,100275.31
2023-03-06T08:48:15.779Z,100276.22
2023-03-06T08:49:07.229Z,100277.09
2023-03-06T08:50:00.195Z,100271.94
2023-03-06T08:50:53.199Z,100277.09
2023-03-06T08:51:44.681Z,100272.06
2023-03-06T08:52:36.160Z,100274.03
2023-03-06T08:53:41.636Z,100276.78
2023-03-06T08:54:37.038Z,100275.31
2023-03-06T08:55:28.765Z,100273.72
2023-03-06T08:56:23.339Z,100279.88
2023-03-06T08:57:14.993Z,100280.69
2023-03-06T08:58:06.441Z,100278.19
2023-03-06T08:59:00.117Z,100279.00
2023-03-06T08:59:51.817Z,100279.13
2023-03-06T09:00:43.470Z,100266.94
2023-03-06T09:01:37.675Z,100279.13
2023-03-06T09:02:29.450Z,100273.22
2023-03-06T09:03:23.119Z,100273.97
2023-03-06T09:04:14.800Z,100282.13
2023-03-06T09:05:08.377Z,100278.06
2023-03-06T09:06:00.151Z,100274.63
2023-03-06T09:06:52.438Z,100279.75
2023-03-06T09:07:44.915Z,100274.41
2023-03-06T09:08:36.349Z,100281.28
2023-03-06T09:09:27.857Z,100270.91
2023-03-06T09:10:24.477Z,100277.78
2023-03-06T09:11:16.007Z,100273.59
2023-03-06T09:12:07.540Z,100272.66
2023-03-06T09:12:59.190Z,100271.03
2023-03-06T09:13:51.669Z,100277.06
2023-03-06T09:14:43.184Z,100272.72
2023-03-06T09:15:34.742Z,100275.44
2023-03-06T09:16:26.596Z,100273.59
2023-03-06T09:17:18.315Z,100271.97
2023-03-06T09:18:09.772Z,100279.75
2023-03-06T09:19:01.367Z,100272.66
2023-03-06T09:19:52.905Z,100273.22
2023-03-06T09:20:44.622Z,100270.75
2023-03-06T09:21:36.107Z,100269.94
2023-03-06T09:22:27.578Z,100274.28
2023-03-06T09:23:19.071Z,100265.19
2023-03-06T09:24:10.967Z,100268.81
2023-03-06T09:25:04.448Z,100270.44
2023-03-06T09:25:58.657Z,100267.31
2023-03-06T09:26:51.742Z,100267.63
2023-03-06T09:27:43.244Z,100266.19
2023-03-06T09:28:39.947Z,100267.50
2023-03-06T09:29:31.477Z,100265.28
2023-03-06T09:30:23.302Z,100268.53
2023-03-06T09:31:19.935Z,100267.19
2023-03-06T09:32:12.246Z,100273.28
2023-03-06T09:33:03.939Z,100266.50
2023-03-06T09:33:55.363Z,100273.31
2023-03-06T09:34:46.866Z,100265.59
2023-03-06T09:35:54.588Z,100267.53
2023-03-06T09:36:56.825Z,100265.44
2023-03-06T09:37:49.078Z,100269.81
2023-03-06T09:38:40.840Z,100267.31
2023-03-06T09:39:32.666Z,100278.38
2023-03-06T09:40:52.882Z,100275.66
2023-03-06T09:41:49.410Z,100271.34
2023-03-06T09:42:40.915Z,100272.97
2023-03-06T09:43:40.270Z,100268.22
2023-03-06T09:44:38.496Z,100270.50
2023-03-06T09:45:36.943Z,100270.50
2023-03-06T09:46:45.864Z,100268.56
2023-03-06T09:47:55.884Z,100271.88
2023-03-06T09:48:50.109Z,100270.78
2023-03-06T09:50:01.774Z,100271.03
2023-03-06T09:51:05.675Z,100271.34
2023-03-06T09:52:18.412Z,100270.41
2023-03-06T09:53:38.655Z,100273.72
2023-03-06T09:54:55.581Z,100272.97
2023-03-06T09:55:58.331Z,100274.66
2023-03-06T09:56:51.019Z,100261.78
2023-03-06T09:57:51.269Z,100270.41
2023-03-06T09:59:08.627Z,100281.19
2023-03-06T10:00:07.336Z,100278.75
2023-03-06T10:01:04.749Z,100268.63
2023-03-06T10:02:15.840Z,100268.09
2023-03-06T10:03:39.252Z,100265.88
2023-03-06T10:04:50.242Z,100272.53
2023-03-06T10:05:57.983Z,100266.69
2023-03-06T10:06:55.631Z,100264.31
2023-03-06T10:07:58.182Z,100261.84
2023-03-06T10:09:02.356Z,100256.00
2023-03-06T10:09:59.775Z,100260.41
2023-03-06T10:11:02.214Z,100261.34
2023-03-06T10:12:06.568Z,100254.03
2023-03-06T10:13:24.070Z,100255.16